createdAt,value
2018-09-04T00:00:15.851Z,99430.80
2018-09-04T00:06:20.915Z,99428.75
2018-09-04T00:12:26.257Z,99429.97
2018-09-04T00:18:30.934Z,99421.76
2018-09-04T00:24:35.808Z,99422.86
2018-09-04T00:30:41.765Z,99414.51
2018-09-04T00:36:47.407Z,99415.92
2018-09-04T00:42:52.196Z,99413.97
2018-09-04T00:48:57.145Z,99412.88
2018-09-04T00:55:01.967Z,99414.95
2018-09-04T01:01:06.705Z,99413.09
2018-09-04T01:07:11.823Z,99424.09
2018-09-04T01:13:16.784Z,99425.66
2018-09-04T01:19:21.509Z,99427.45
2018-09-04T01:25:26.388Z,99434.86
2018-09-04T01:31:31.225Z,99428.59
2018-09-04T01:37:36.063Z,99427.23
2018-09-04T01:43:41.998Z,99428.59
2018-09-04T01:49:47.029Z,99425.11
2018-09-04T01:55:52.015Z,99416.73
2018-09-04T02:01:57.171Z,99414.80
2018-09-04T02:08:02.057Z,99411.73
2018-09-04T02:14:07.096Z,99413.45
2018-09-04T02:20:12.046Z,99408.67
2018-09-04T02:26:16.980Z,99407.37
2018-09-04T02:32:21.936Z,99406.66
2018-09-04T02:38:27.769Z,99406.98
2018-09-04T02:44:32.940Z,99403.94
2018-09-04T02:50:37.768Z,99408.48
2018-09-04T02:56:47.852Z,99410.81
2018-09-04T03:02:52.770Z,99422.23
2018-09-04T03:08:57.652Z,99424.11
2018-09-04T03:15:02.518Z,99425.81
2018-09-04T03:21:07.438Z,99423.44
2018-09-04T03:27:12.479Z,99423.41
2018-09-04T03:33:17.274Z,99426.83
2018-09-04T03:39:22.077Z,99423.63
2018-09-04T03:45:27.194Z,99433.72
2018-09-04T03:51:31.946Z,99415.23
2018-09-04T03:57:37.215Z,99424.70
2018-09-04T04:03:44.108Z,99429.06
2018-09-04T04:09:49.230Z,99424.42
2018-09-04T04:15:53.959Z,99432.14
2018-09-04T04:21:58.862Z,99434.10
2018-09-04T04:28:03.657Z,99438.09
2018-09-04T04:34:09.876Z,99440.00
2018-09-04T04:40:15.520Z,99439.00
2018-09-04T04:46:20.325Z,99434.61
2018-09-04T04:52:25.276Z,99429.87
2018-09-04T04:58:30.017Z,99428.23
2018-09-04T05:04:34.816Z,99438.30
2018-09-04T05:10:40.815Z,99434.48
2018-09-04T05:16:46.263Z,99438.90
2018-09-04T05:22:51.220Z,99448.52
2018-09-04T05:28:56.089Z,99460.79
2018-09-04T05:35:01.112Z,99452.94
2018-09-04T05:41:05.986Z,99455.84
2018-09-04T05:47:10.967Z,99458.42
2018-09-04T05:53:16.363Z,99461.44
2018-09-04T05:59:21.554Z,99452.58
2018-09-04T06:05:26.523Z,99460.39
2018-09-04T06:11:31.313Z,99467.22
2018-09-04T06:17:36.092Z,99458.94
2018-09-04T06:23:41.758Z,99453.00
2018-09-04T06:29:47.000Z,99453.23
2018-09-04T06:35:52.071Z,99453.80
2018-09-04T06:41:56.886Z,99453.80
2018-09-04T06:48:01.901Z,99458.88
2018-09-04T06:54:06.969Z,99450.48
2018-09-04T07:00:15.078Z,99458.22
2018-09-04T07:06:20.301Z,99462.23
2018-09-04T07:12:25.097Z,99461.42
2018-09-04T07:18:29.945Z,99464.77
2018-09-04T07:24:34.808Z,99461.86
2018-09-04T07:30:39.841Z,99463.36
2018-09-04T07:36:46.235Z,99463.52
2018-09-04T07:42:51.080Z,99467.97
2018-09-04T07:48:55.855Z,99467.94
2018-09-04T07:55:00.630Z,99464.44
2018-09-04T08:01:06.354Z,99462.96
2018-09-04T08:07:11.217Z,99468.19
2018-09-04T08:13:16.454Z,99462.05
2018-09-04T08:19:21.466Z,99464.84
2018-09-04T08:25:26.979Z,99458.61
2018-09-04T08:31:31.720Z,99459.09
2018-09-04T08:37:36.710Z,99453.23
2018-09-04T08:43:41.482Z,99449.64
2018-09-04T08:49:46.725Z,99448.38
2018-09-04T08:55:51.645Z,99447.88
2018-09-04T09:01:56.545Z,99442.52
2018-09-04T09:08:01.370Z,99435.39
2018-09-04T09:14:06.423Z,99425.36
2018-09-04T09:20:12.173Z,99423.91
2018-09-04T09:26:17.020Z,99422.51
2018-09-04T09:32:21.788Z,99419.88
2018-09-04T09:38:26.699Z,99409.55
2018-09-04T09:44:31.826Z,99408.70
2018-09-04T09:50:36.771Z,99414.81
2018-09-04T09:56:41.921Z,99415.62
2018-09-04T10:02:51.988Z,99403.39
2018-09-04T10:08:56.798Z,99395.48
2018-09-04T10:15:01.511Z,99387.84
2018-09-04T10:21:06.941Z,99376.91
2018-09-04T10:27:12.441Z,99368.16
2018-09-04T10:33:17.445Z,99370.23
2018-09-04T10:39:27.477Z,99359.05
2018-09-04T10:45:37.384Z,99366.17
2018-09-04T10:51:43.309Z,99355.47
2018-09-04T10:57:48.399Z,99355.11
2018-09-04T11:03:53.250Z,99347.92
2018-09-04T11:09:58.222Z,99349.08
2018-09-04T11:16:03.139Z,99348.36
2018-09-04T11:22:07.916Z,99342.92
2018-09-04T11:28:14.051Z,99341.09
2018-09-04T11:34:18.955Z,99338.28
2018-09-04T11:40:24.017Z,99338.48
2018-09-04T11:46:28.772Z,99339.02
2018-09-04T11:52:33.801Z,99336.02
2018-09-04T11:58:38.886Z,99333.36
2018-09-04T12:04:45.098Z,99337.16
2018-09-04T12:10:50.016Z,99336.80
2018-09-04T12:16:54.792Z,99325.27
2018-09-04T12:22:59.843Z,99324.09
2018-09-04T12:29:05.072Z,99336.11
2018-09-04T12:35:10.675Z,99338.83
2018-09-04T12:41:17.019Z,99336.89
2018-09-04T12:47:21.766Z,99331.92
2018-09-04T12:53:27.488Z,99329.38
2018-09-04T12:59:32.211Z,99337.09
2018-09-04T13:05:37.415Z,99332.16
2018-09-04T13:11:44.871Z,99334.11
2018-09-04T13:17:49.641Z,99329.80
2018-09-04T13:23:54.406Z,99336.84
2018-09-04T13:29:59.437Z,99333.37
2018-09-04T13:36:04.126Z,99329.28
2018-09-04T13:42:09.372Z,99327.47
2018-09-04T13:48:14.571Z,99333.18
2018-09-04T13:54:19.577Z,99324.72
2018-09-04T14:00:25.598Z,99335.50
2018-09-04T14:06:30.488Z,99332.91
2018-09-04T14:12:35.217Z,99327.97
2018-09-04T14:18:40.368Z,99331.16
2018-09-04T14:24:45.799Z,99327.02
2018-09-04T14:30:50.763Z,99327.33
2018-09-04T14:36:55.608Z,99331.20
2018-09-04T14:43:00.416Z,99317.39
2018-09-04T14:49:05.689Z,99326.81
2018-09-04T14:55:11.660Z,99327.48
2018-09-04T15:01:16.347Z,99337.02
2018-09-04T15:07:21.061Z,99349.24
2018-09-04T15:13:25.937Z,99345.53
2018-09-04T15:19:31.108Z,99349.52
2018-09-04T15:25:36.029Z,99349.39
2018-09-04T15:31:41.421Z,99347.38
2018-09-04T15:37:46.215Z,99353.45
2018-09-04T15:43:51.140Z,99351.64
2018-09-04T15:49:55.979Z,99359.44
2018-09-04T15:56:00.748Z,99363.89
2018-09-04T16:02:05.942Z,99359.55
2018-09-04T16:08:11.311Z,99362.37
2018-09-04T16:14:16.384Z,99369.23
2018-09-04T16:20:21.264Z,99365.92
2018-09-04T16:26:26.049Z,99371.17
2018-09-04T16:32:30.955Z,99358.05
2018-09-04T16:38:35.739Z,99372.30
2018-09-04T16:44:41.700Z,99373.47
2018-09-04T16:50:46.858Z,99372.23
2018-09-04T16:56:52.281Z,99378.27
2018-09-04T17:02:57.056Z,99375.55
2018-09-04T17:09:01.735Z,99384.69
2018-09-04T17:15:06.685Z,99387.56
2018-09-04T17:21:11.746Z,99385.19
2018-09-04T17:27:16.761Z,99388.80
2018-09-04T17:33:21.890Z,99400.73
2018-09-04T17:39:26.738Z,99404.60
2018-09-04T17:45:31.535Z,99412.94
2018-09-04T17:51:36.498Z,99419.13
2018-09-04T17:57:41.349Z,99425.11
2018-09-04T18:03:46.273Z,99433.14
2018-09-04T18:09:50.990Z,99441.92
2018-09-04T18:15:55.923Z,99447.16
2018-09-04T18:22:00.744Z,99455.55
2018-09-04T18:28:05.537Z,99473.02
2018-09-04T18:34:11.719Z,99468.41
2018-09-04T18:40:16.726Z,99480.14
2018-09-04T18:47:06.941Z,99486.28
2018-09-04T18:53:12.919Z,99488.56
2018-09-04T18:59:17.863Z,99497.45
2018-09-04T19:05:22.707Z,99500.22
2018-09-04T19:11:27.488Z,99507.64
2018-09-04T19:17:32.360Z,99503.84
2018-09-04T19:23:37.244Z,99511.52
2018-09-04T19:29:42.236Z,99514.80
2018-09-04T19:35:47.215Z,99514.78
2018-09-04T19:41:52.218Z,99512.50
2018-09-04T19:47:57.380Z,99528.31
2018-09-04T19:54:02.182Z,99533.70
2018-09-04T20:00:07.977Z,99533.38
2018-09-04T20:06:13.686Z,99529.70
2018-09-04T20:12:18.697Z,99535.36
2018-09-04T20:18:23.441Z,99539.64
2018-09-04T20:24:28.467Z,99537.91
2018-09-04T20:30:33.515Z,99541.72
2018-09-04T20:36:38.719Z,99545.95
2018-09-04T20:42:44.327Z,99545.84
2018-09-04T20:48:49.960Z,99543.78
2018-09-04T20:54:54.817Z,99546.38
2018-09-04T21:01:16.247Z,99545.92
2018-09-04T21:07:24.404Z,99549.55
2018-09-04T21:13:29.162Z,99557.28
2018-09-04T21:19:34.358Z,99560.99
2018-09-04T21:25:39.254Z,99569.36
2018-09-04T21:31:44.854Z,99571.16
2018-09-04T21:37:49.494Z,99574.48
2018-09-04T21:43:54.398Z,99573.06
2018-09-04T21:49:59.465Z,99566.67
2018-09-04T21:56:05.055Z,99570.91
2018-09-04T22:02:10.344Z,99575.32
2018-09-04T22:08:15.812Z,99584.88
2018-09-04T22:14:21.022Z,99598.60
2018-09-04T22:20:26.545Z,99592.67
2018-09-04T22:26:31.374Z,99588.95
2018-09-04T22:32:36.361Z,99594.08
2018-09-04T22:38:42.196Z,99602.14
2018-09-04T22:44:46.910Z,99597.53
2018-09-04T22:50:56.877Z,99594.67
2018-09-04T22:57:01.906Z,99597.26
2018-09-04T23:03:06.884Z,99604.91
2018-09-04T23:09:12.606Z,99606.41
2018-09-04T23:15:17.367Z,99613.26
2018-09-04T23:21:22.116Z,99612.42
2018-09-04T23:27:27.172Z,99611.44
2018-09-04T23:33:33.239Z,99611.05
2018-09-04T23:39:39.992Z,99610.22
2018-09-04T23:45:45.482Z,99618.61
2018-09-04T23:51:50.290Z,99613.78
2018-09-04T23:57:55.260Z,99610.17
